Time;durP1;ratioP1;P1;durP2;ratioP2;P2;SDS_P1;SDS_P2;PMS_P1;PMS_P2;Temp;Humidity;BMP_temperature;BMP_pressure;BME280_temperature;BME280_humidity;BME280_pressure;Samples;Min_cycle;Max_cycle;Signal;HPM_P1;HPM_P2
2022/01/26 00:00:30;;;;;;;120.32;45.33;;;;;;;1.97;84.47;103050.09;5020799;28;20397;-74
2022/01/26 00:05:52;;;;;;;124.15;46.45;;;;;;;2.08;84.61;103042.94;5024851;28;20064;-74
2022/01/26 00:08:23;;;;;;;123.53;45.70;;;;;;;2.13;84.18;103041.06;5024883;28;20029;-74
2022/01/26 00:10:48;;;;;;;129.23;46.72;;;;;;;2.09;84.50;103041.19;5027345;28;20041;-74
2022/01/26 00:13:14;;;;;;;130.45;49.38;;;;;;;2.14;84.18;103047.03;5026614;28;20029;-74
2022/01/26 00:15:39;;;;;;;120.95;45.47;;;;;;;2.06;83.59;103054.09;5025059;28;20029;-74
2022/01/26 00:18:05;;;;;;;126.68;46.92;;;;;;;2.09;84.06;103052.28;5024446;28;20037;-74
2022/01/26 00:20:39;;;;;;;122.22;45.20;;;;;;;2.05;83.67;103047.28;5026471;28;20033;-74
2022/01/26 00:23:22;;;;;;;127.93;48.05;;;;;;;2.10;83.45;103036.03;5023078;28;20585;-74
2022/01/26 00:26:16;;;;;;;129.43;47.45;;;;;;;1.98;83.37;103050.91;5027038;28;20026;-74
2022/01/26 00:28:35;;;;;;;124.03;45.58;;;;;;;1.99;83.69;103050.88;5016300;28;20545;-74
2022/01/26 00:32:56;;;;;;;121.47;44.92;;;;;;;1.96;84.18;103058.66;5026831;28;20025;-74
2022/01/26 00:39:28;;;;;;;142.95;49.40;;;;;;;2.17;82.89;103038.41;5024812;28;20677;-74
2022/01/26 00:41:57;;;;;;;144.27;49.88;;;;;;;2.12;82.42;103030.88;5027932;28;20045;-74
2022/01/26 00:44:30;;;;;;;148.77;48.65;;;;;;;2.03;82.98;103031.97;5022123;28;20033;-74
2022/01/26 00:46:56;;;;;;;142.93;47.92;;;;;;;2.00;83.67;103029.53;5022985;28;20044;-74
2022/01/26 00:49:21;;;;;;;141.63;48.53;;;;;;;1.95;83.57;103033.94;5026229;28;20029;-74
2022/01/26 00:51:47;;;;;;;150.25;51.10;;;;;;;1.97;83.87;103034.72;5028062;28;20446;-74
2022/01/26 00:54:12;;;;;;;163.70;52.13;;;;;;;1.94;83.16;103045.91;5021528;28;20032;-74
2022/01/26 00:56:38;;;;;;;165.85;52.55;;;;;;;2.11;82.68;103041.97;5025177;28;20535;-74
2022/01/26 00:59:04;;;;;;;172.30;54.08;;;;;;;2.01;82.50;103032.91;5016873;28;20557;-73
2022/01/26 01:01:31;;;;;;;177.15;54.95;;;;;;;1.97;82.84;103034.72;5023330;28;20045;-74
2022/01/26 01:03:57;;;;;;;171.98;54.67;;;;;;;1.99;82.75;103034.69;5024651;28;20447;-74
2022/01/26 01:06:30;;;;;;;166.05;54.50;;;;;;;2.02;82.60;103032.06;5021306;28;20033;-73
2022/01/26 01:08:57;;;;;;;180.80;55.03;;;;;;;1.98;82.29;103031.31;5026273;28;20376;-74
2022/01/26 01:11:24;;;;;;;181.75;55.90;;;;;;;2.03;82.21;103031.97;5021346;28;20018;-74
2022/01/26 01:13:49;;;;;;;182.02;55.40;;;;;;;1.99;82.90;103037.25;5022261;28;20041;-74
2022/01/26 01:16:19;;;;;;;171.55;54.42;;;;;;;1.94;83.14;103035.66;5025244;28;20116;-74
2022/01/26 01:19:35;;;;;;;162.55;53.38;;;;;;;1.94;83.38;103030.56;5002648;28;20025;-74
2022/01/26 01:27:07;;;;;;;181.52;57.05;;;;;;;1.94;83.47;103045.03;5023403;28;20030;-74
2022/01/26 01:29:46;;;;;;;179.18;57.22;;;;;;;1.99;83.14;103040.63;5017227;28;20033;-74
2022/01/26 01:32:14;;;;;;;179.98;57.40;;;;;;;1.89;83.25;103045.19;5019895;28;20131;-74
2022/01/26 01:34:40;;;;;;;184.77;56.67;;;;;;;1.97;82.78;103039.03;5009034;28;20506;-74
2022/01/26 01:37:09;;;;;;;186.05;56.92;;;;;;;1.93;82.38;103041.66;5026184;28;20035;-74
2022/01/26 01:39:36;;;;;;;193.15;57.63;;;;;;;2.02;81.72;103032.06;5020527;28;20124;-74
2022/01/26 01:42:05;;;;;;;180.05;56.20;;;;;;;1.94;81.84;103039.94;5026672;28;20080;-74
2022/01/26 01:44:30;;;;;;;177.98;56.20;;;;;;;1.91;81.74;103040.03;5018511;28;20117;-74
2022/01/26 01:46:57;;;;;;;180.00;55.40;;;;;;;1.90;81.43;103025.56;5026205;28;20123;-75
2022/01/26 01:49:23;;;;;;;166.25;53.83;;;;;;;1.87;81.11;103023.09;5024856;28;20029;-74
2022/01/26 01:51:53;;;;;;;177.25;53.47;;;;;;;1.79;82.12;103032.69;5018483;28;20038;-74
2022/01/26 01:54:19;;;;;;;176.85;53.78;;;;;;;1.91;81.70;103027.25;5023143;28;20104;-74
2022/01/26 01:56:54;;;;;;;184.10;52.17;;;;;;;1.90;81.51;103033.22;5042333;28;20550;-74
2022/01/26 01:59:21;;;;;;;168.55;50.83;;;;;;;1.96;81.23;103030.50;5026830;28;20025;-74
2022/01/26 02:01:47;;;;;;;173.73;52.17;;;;;;;1.95;80.56;103042.44;5019495;28;20056;-74
2022/01/26 02:04:12;;;;;;;170.25;51.97;;;;;;;1.94;80.99;103043.34;5025835;28;20480;-74
2022/01/26 02:06:38;;;;;;;152.30;47.65;;;;;;;1.88;81.28;103037.56;5023820;28;20090;-74
2022/01/26 02:09:04;;;;;;;170.50;51.92;;;;;;;1.87;81.40;103036.72;5038970;28;20033;-73
2022/01/26 02:11:29;;;;;;;166.07;50.88;;;;;;;1.77;82.06;103035.31;5024913;28;20041;-74
2022/01/26 02:16:30;;;;;;;168.98;49.97;;;;;;;1.72;82.91;103021.81;5025189;28;20083;-74
2022/01/26 02:54:18;;;;;;;149.68;46.47;;;;;;;1.74;82.44;102997.88;5021745;28;20045;-74
2022/01/26 03:06:47;;;;;;;146.77;46.30;;;;;;;1.71;82.67;102979.22;5022784;28;20044;-74
2022/01/26 03:09:16;;;;;;;153.18;46.95;;;;;;;1.77;82.29;102970.50;5023490;28;20037;-74
2022/01/26 03:11:44;;;;;;;159.02;50.03;;;;;;;1.75;82.51;102960.31;5023553;28;20053;-74
2022/01/26 03:16:57;;;;;;;159.50;47.92;;;;;;;1.66;82.82;102952.94;5028690;28;20451;-74
2022/01/26 03:19:35;;;;;;;165.18;50.78;;;;;;;1.72;82.78;102951.03;5026056;28;20157;-74
2022/01/26 03:30:02;;;;;;;150.50;46.60;;;;;;;1.61;82.68;102945.41;5030449;28;20480;-74
2022/01/26 03:35:00;;;;;;;150.07;46.03;;;;;;;1.60;83.58;102948.00;5026899;28;20037;-74
2022/01/26 03:37:33;;;;;;;164.40;48.80;;;;;;;1.64;83.45;102947.88;5029373;28;20328;-74
2022/01/26 03:39:59;;;;;;;;;;;;;;;1.57;83.68;102946.38;5024629;28;20026;-74
2022/01/26 03:42:24;;;;;;;146.07;44.15;;;;;;;1.50;84.01;102943.13;5027251;28;19916;-74
2022/01/26 03:44:49;;;;;;;142.18;45.33;;;;;;;1.51;84.47;102934.59;5025557;28;20107;-74
2022/01/26 03:47:15;;;;;;;174.93;52.97;;;;;;;1.53;84.34;102937.13;5030910;28;20507;-74
2022/01/26 03:49:41;;;;;;;174.98;54.72;;;;;;;1.53;84.52;102945.63;5023362;28;20076;-74
2022/01/26 03:52:07;;;;;;;191.20;58.25;;;;;;;1.54;84.54;102947.31;5022207;28;20033;-74
2022/01/26 03:54:33;;;;;;;207.52;64.78;;;;;;;1.59;84.46;102942.03;5024699;28;20117;-74
2022/01/26 03:56:59;;;;;;;199.73;65.32;;;;;;;1.61;84.29;102947.13;5011695;28;20128;-74
2022/01/26 03:59:25;;;;;;;180.88;57.00;;;;;;;1.61;84.26;102942.00;5022932;28;20088;-74
2022/01/26 04:01:51;;;;;;;191.98;62.08;;;;;;;1.58;84.20;102954.88;5021424;28;20056;-74
2022/01/26 04:04:16;;;;;;;165.10;52.72;;;;;;;1.65;84.85;102953.81;5025639;28;20117;-74
2022/01/26 04:06:42;;;;;;;158.90;51.55;;;;;;;1.66;84.58;102953.78;5030456;28;20041;-74
2022/01/26 04:09:10;;;;;;;165.02;55.15;;;;;;;1.70;84.23;102957.09;5028644;28;20037;-74
2022/01/26 04:11:43;;;;;;;166.05;60.05;;;;;;;1.65;83.64;102964.88;5027061;28;20127;-74
2022/01/26 04:14:13;;;;;;;164.50;55.75;;;;;;;1.59;84.38;102975.28;5037892;28;20033;-73
2022/01/26 04:16:40;;;;;;;171.60;56.60;;;;;;;1.74;84.20;102974.00;5025499;28;20032;-74
2022/01/26 04:19:06;;;;;;;159.55;52.47;;;;;;;1.63;84.29;102969.19;5028638;28;20446;-73
2022/01/26 04:21:47;;;;;;;167.30;51.72;;;;;;;1.60;84.53;102965.91;5026606;28;20099;-74
2022/01/26 04:24:33;;;;;;;167.35;52.97;;;;;;;1.61;84.71;102970.13;5025070;28;20430;-74
2022/01/26 04:27:07;;;;;;;151.15;48.53;;;;;;;1.56;84.98;102960.03;5022058;28;20041;-74
2022/01/26 04:29:34;;;;;;;165.13;48.42;;;;;;;1.54;84.52;102959.25;5028793;28;20029;-74
2022/01/26 04:32:03;;;;;;;164.35;49.55;;;;;;;1.77;83.77;102956.00;5027892;28;20037;-73
2022/01/26 04:34:32;;;;;;;176.55;50.78;;;;;;;1.66;83.60;102958.88;5023055;28;20099;-73
2022/01/26 04:39:29;;;;;;;164.20;49.10;;;;;;;1.71;83.25;102966.41;5027181;28;20050;-74
2022/01/26 04:42:00;;;;;;;165.18;47.30;;;;;;;1.60;83.49;102979.53;5022357;28;20045;-73
2022/01/26 04:44:31;;;;;;;178.77;49.60;;;;;;;1.65;83.89;102981.94;5023944;28;20085;-73
2022/01/26 04:46:56;;;;;;;168.48;47.60;;;;;;;1.57;83.50;102979.63;5021171;28;20033;-74
2022/01/26 04:49:22;;;;;;;177.43;51.03;;;;;;;1.66;83.43;102988.75;5044458;28;20095;-74
2022/01/26 04:51:48;;;;;;;179.75;51.45;;;;;;;1.69;83.56;102994.59;5028717;28;20037;-74
2022/01/26 04:54:14;;;;;;;175.35;49.95;;;;;;;1.72;83.73;102994.50;5019680;28;20044;-74
2022/01/26 04:56:39;;;;;;;181.05;51.22;;;;;;;1.73;83.38;102985.13;5016316;28;20027;-74
2022/01/26 04:59:05;;;;;;;181.13;49.65;;;;;;;1.62;83.64;102987.16;5021948;28;20029;-73
2022/01/26 05:01:30;;;;;;;192.80;53.97;;;;;;;1.60;83.42;102978.69;5019551;28;20396;-74
2022/01/26 05:03:56;;;;;;;190.85;52.15;;;;;;;1.59;84.04;102974.47;5024352;28;20049;-74
2022/01/26 05:06:22;;;;;;;209.52;56.53;;;;;;;1.55;83.33;102983.94;5018701;28;20091;-74
2022/01/26 05:08:47;;;;;;;193.65;53.83;;;;;;;1.44;83.74;102978.28;5024760;28;20543;-74
2022/01/26 05:11:19;;;;;;;182.88;52.60;;;;;;;1.46;84.29;102972.25;5009533;28;20049;-73
2022/01/26 05:13:44;;;;;;;193.40;52.80;;;;;;;1.51;84.34;102987.47;5004012;28;20044;-74
2022/01/26 05:16:10;;;;;;;212.55;55.88;;;;;;;1.49;83.85;102996.91;5019751;28;20041;-74
2022/01/26 05:18:36;;;;;;;204.27;54.90;;;;;;;1.50;83.88;103003.69;5025216;28;20037;-75
2022/01/26 05:21:01;;;;;;;208.32;58.10;;;;;;;1.68;83.59;103013.41;5023553;28;20045;-74
2022/01/26 05:23:27;;;;;;;210.93;57.13;;;;;;;1.47;84.05;103007.19;5009233;28;20041;-74
2022/01/26 05:25:53;;;;;;;216.13;57.85;;;;;;;1.51;83.64;103010.50;5022136;28;20032;-74
2022/01/26 05:28:18;;;;;;;207.95;54.80;;;;;;;1.51;83.55;102998.53;5023629;28;20029;-74
2022/01/26 05:30:44;;;;;;;223.13;55.33;;;;;;;1.43;83.98;103003.03;5019860;28;20022;-74
2022/01/26 05:33:09;;;;;;;206.77;55.85;;;;;;;1.43;83.89;103010.72;5020710;28;20072;-75
2022/01/26 05:35:35;;;;;;;222.27;58.53;;;;;;;1.44;83.72;103012.38;5021012;28;20029;-74
2022/01/26 05:38:00;;;;;;;227.63;57.83;;;;;;;1.54;83.88;103007.81;5027729;28;20037;-74
2022/01/26 05:40:26;;;;;;;223.35;58.28;;;;;;;1.60;83.80;103000.00;5017811;28;20042;-77
2022/01/26 05:42:51;;;;;;;208.73;54.75;;;;;;;1.52;83.83;102984.03;5021036;28;20129;-74
2022/01/26 05:45:24;;;;;;;216.30;56.03;;;;;;;1.45;84.02;102998.72;5009704;28;20033;-74
2022/01/26 05:47:49;;;;;;;201.52;57.00;;;;;;;1.46;84.28;102991.88;5024353;28;20492;-74
2022/01/26 05:50:15;;;;;;;210.63;55.97;;;;;;;1.45;83.94;102992.75;5025778;28;20080;-75
2022/01/26 05:52:41;;;;;;;217.90;57.55;;;;;;;1.48;84.32;103002.91;5006316;28;20494;-74
2022/01/26 05:55:07;;;;;;;214.35;57.20;;;;;;;1.70;83.14;103000.56;5021981;28;20125;-74
2022/01/26 05:57:33;;;;;;;202.32;56.83;;;;;;;1.72;82.94;102994.50;5025071;28;20072;-75
2022/01/26 05:59:58;;;;;;;206.70;55.78;;;;;;;1.56;83.31;102990.72;5024762;28;20034;-75
2022/01/26 06:02:24;;;;;;;210.10;54.58;;;;;;;1.45;83.92;102985.06;5041637;28;20032;-74
2022/01/26 06:04:49;;;;;;;205.82;54.92;;;;;;;1.42;84.35;102974.94;5006613;28;20034;-74
2022/01/26 06:07:14;;;;;;;203.48;55.85;;;;;;;1.38;84.30;102968.25;5025404;28;20495;-74
2022/01/26 06:09:40;;;;;;;216.15;56.75;;;;;;;1.43;84.88;102959.56;5025808;28;20241;-74
2022/01/26 06:12:06;;;;;;;191.63;52.92;;;;;;;1.35;84.77;102933.38;5009003;28;20037;-74
2022/01/26 06:14:32;;;;;;;198.15;54.75;;;;;;;1.33;85.39;102924.91;5022355;28;20053;-74
2022/01/26 06:16:57;;;;;;;202.45;54.17;;;;;;;1.40;85.47;102951.97;5021434;28;20071;-74
2022/01/26 06:19:22;;;;;;;203.63;54.15;;;;;;;1.39;85.67;102954.56;5009629;28;20028;-74
2022/01/26 06:21:48;;;;;;;207.48;55.10;;;;;;;1.35;85.36;102949.53;5025703;28;20029;-75
2022/01/26 06:24:14;;;;;;;194.80;53.75;;;;;;;1.49;84.37;102969.63;5024175;28;20037;-74
2022/01/26 06:26:41;;;;;;;203.27;50.67;;;;;;;1.58;84.25;102972.78;5025072;28;20399;-76
2022/01/26 06:29:06;;;;;;;215.65;55.75;;;;;;;1.62;83.78;102969.25;5023950;28;20041;-74
2022/01/26 06:31:34;;;;;;;199.93;54.95;;;;;;;1.71;83.70;102967.28;5022018;28;20086;-74
2022/01/26 06:34:02;;;;;;;209.80;56.97;;;;;;;1.59;83.97;102966.78;5005306;28;20021;-75
2022/01/26 06:36:27;;;;;;;205.82;55.38;;;;;;;1.46;84.22;102974.81;5009636;28;20466;-75
2022/01/26 06:38:53;;;;;;;205.00;55.90;;;;;;;1.39;84.28;102977.59;5017728;28;20065;-74
2022/01/26 06:41:24;;;;;;;200.98;55.13;;;;;;;1.35;84.83;102964.88;5024443;28;20021;-74
2022/01/26 06:43:56;;;;;;;203.68;56.58;;;;;;;1.38;85.02;102963.13;5019618;28;20419;-74
2022/01/26 06:46:52;;;;;;;189.95;52.65;;;;;;;1.29;85.02;102964.22;5023815;28;20044;-74
2022/01/26 06:51:52;;;;;;;192.95;53.65;;;;;;;1.32;85.11;102982.88;5029834;28;20026;-75
2022/01/26 06:54:17;;;;;;;194.35;52.10;;;;;;;1.30;85.71;102968.44;5011809;28;20626;-74
2022/01/26 06:56:44;;;;;;;199.32;52.92;;;;;;;1.28;86.07;102962.53;5028521;28;20033;-74
2022/01/26 06:59:11;;;;;;;195.18;53.05;;;;;;;1.29;86.28;102954.81;5028781;28;20113;-74
2022/01/26 07:01:37;;;;;;;187.35;52.67;;;;;;;1.30;86.33;102942.88;5027816;28;20037;-77
2022/01/26 07:04:02;;;;;;;178.98;50.58;;;;;;;1.28;86.79;102935.28;5023146;28;20021;-75
2022/01/26 07:06:28;;;;;;;192.43;54.25;;;;;;;1.28;86.66;102934.41;5022498;28;20520;-74
2022/01/26 07:08:53;;;;;;;200.10;56.75;;;;;;;1.33;86.59;102942.78;5027873;28;20022;-76
2022/01/26 07:11:19;;;;;;;202.45;54.70;;;;;;;1.34;86.06;102945.31;5030475;28;20030;-74
2022/01/26 07:13:45;;;;;;;202.75;55.92;;;;;;;1.35;85.57;102949.53;5025377;28;20034;-76
2022/01/26 07:21:44;;;;;;;189.88;54.47;;;;;;;1.29;86.52;102966.78;4991431;28;20101;-74
2022/01/26 07:24:09;;;;;;;195.32;53.42;;;;;;;1.27;86.83;102969.38;5010145;28;20044;-76
2022/01/26 07:26:36;;;;;;;190.57;53.95;;;;;;;1.28;87.09;102950.59;5028186;28;20033;-74
2022/01/26 07:29:07;;;;;;;201.60;54.97;;;;;;;1.31;87.06;102949.69;5026500;28;20037;-74
2022/01/26 07:31:36;;;;;;;210.27;56.13;;;;;;;1.28;87.31;102949.75;5023676;28;20034;-74
2022/01/26 07:34:02;;;;;;;214.85;56.00;;;;;;;1.29;87.43;102957.38;5022640;28;20491;-74
2022/01/26 07:36:27;;;;;;;204.82;57.88;;;;;;;1.41;87.20;102943.41;5029683;28;20041;-74
2022/01/26 07:38:55;;;;;;;215.23;58.08;;;;;;;1.46;86.67;102951.78;5013070;28;20053;-75
2022/01/26 07:41:21;;;;;;;193.88;54.00;;;;;;;1.39;86.94;102944.34;5045244;28;20029;-75
2022/01/26 07:43:47;;;;;;;202.52;56.28;;;;;;;1.45;86.79;102947.56;5027266;28;20049;-74
2022/01/26 07:46:13;;;;;;;201.05;55.55;;;;;;;1.41;87.08;102953.63;5028428;28;20039;-75
2022/01/26 07:48:39;;;;;;;194.02;54.90;;;;;;;1.36;87.42;102947.84;5026123;28;20037;-75
2022/01/26 07:51:05;;;;;;;194.40;54.88;;;;;;;1.49;87.00;102961.13;5027854;28;20033;-75
2022/01/26 07:53:32;;;;;;;192.18;53.40;;;;;;;1.51;86.21;102972.13;5029623;28;20103;-76
2022/01/26 07:55:57;;;;;;;202.57;54.10;;;;;;;1.41;86.96;102986.03;5026016;28;20044;-74
2022/01/26 07:58:23;;;;;;;202.45;55.63;;;;;;;1.41;87.24;102996.28;5024963;28;20402;-75
2022/01/26 08:00:49;;;;;;;202.88;56.05;;;;;;;1.38;87.30;102983.59;5031030;28;20041;-75
2022/01/26 08:03:15;;;;;;;187.45;53.42;;;;;;;1.35;87.62;102975.09;5005376;28;20037;-75
2022/01/26 08:05:41;;;;;;;208.25;57.22;;;;;;;1.48;87.64;102956.88;5003243;28;20456;-75
2022/01/26 08:08:07;;;;;;;196.23;56.45;;;;;;;1.44;87.17;102960.41;5004720;28;20527;-76
2022/01/26 08:10:33;;;;;;;194.70;54.28;;;;;;;1.46;87.25;102972.25;5024646;28;20322;-75
2022/01/26 08:12:58;;;;;;;195.27;53.30;;;;;;;1.48;87.31;102972.22;5023028;28;20086;-75
2022/01/26 08:15:25;;;;;;;179.60;53.55;;;;;;;1.45;87.50;102954.38;5022196;28;20032;-75
2022/01/26 08:17:50;;;;;;;183.20;51.30;;;;;;;1.61;86.96;102959.91;5024702;28;20043;-75
2022/01/26 08:20:16;;;;;;;196.35;55.78;;;;;;;1.48;86.87;102975.59;5028298;28;20041;-75
2022/01/26 08:22:41;;;;;;;184.13;53.95;;;;;;;1.44;87.21;102978.28;5019509;28;20483;-77
2022/01/26 08:25:09;;;;;;;181.43;51.42;;;;;;;1.42;87.56;102973.22;5019964;28;20107;-74
2022/01/26 08:27:40;;;;;;;193.57;52.40;;;;;;;1.46;87.45;102979.09;5040794;28;20404;-75
2022/01/26 08:30:11;;;;;;;183.82;53.15;;;;;;;1.44;87.96;102997.03;5010971;28;20502;-74
2022/01/26 08:32:36;;;;;;;193.70;55.97;;;;;;;1.48;87.83;102997.78;5026153;28;20407;-77
2022/01/26 08:35:03;;;;;;;179.77;52.72;;;;;;;1.61;87.52;102996.53;5025126;28;20070;-75
2022/01/26 08:37:28;;;;;;;187.05;53.63;;;;;;;1.58;87.47;103003.47;5028526;28;20040;-75
2022/01/26 08:39:54;;;;;;;191.00;52.83;;;;;;;1.75;87.33;103004.66;5026757;28;20439;-75
2022/01/26 08:42:20;;;;;;;190.80;53.78;;;;;;;1.58;87.47;103006.03;5022043;28;20045;-75
2022/01/26 08:44:45;;;;;;;197.77;52.78;;;;;;;1.59;87.93;103021.34;5028895;28;20033;-75
2022/01/26 08:47:11;;;;;;;183.63;51.50;;;;;;;1.55;87.59;103029.97;5028264;28;20056;-74
2022/01/26 08:49:36;;;;;;;193.73;53.45;;;;;;;1.59;88.13;103030.72;5026012;28;20032;-76
2022/01/26 08:52:02;;;;;;;192.25;54.38;;;;;;;1.48;88.54;103025.91;5006192;28;20407;-75
2022/01/26 08:54:28;;;;;;;199.88;54.42;;;;;;;1.52;88.88;103018.09;5026444;28;20048;-74
2022/01/26 08:56:54;;;;;;;205.65;53.70;;;;;;;1.59;88.51;103017.94;5026042;28;20045;-75
2022/01/26 08:59:21;;;;;;;206.77;54.83;;;;;;;1.55;88.53;103024.88;5029112;28;20038;-75
2022/01/26 09:01:47;;;;;;;207.43;54.75;;;;;;;1.68;88.13;103030.47;5022626;28;20730;-75
2022/01/26 09:04:13;;;;;;;203.10;54.17;;;;;;;1.51;88.99;103030.94;5018398;28;20072;-75
2022/01/26 09:06:50;;;;;;;198.40;53.13;;;;;;;1.64;89.03;103022.03;5023801;28;20045;-77
2022/01/26 09:09:17;;;;;;;199.75;50.53;;;;;;;1.54;89.28;103024.03;5025165;28;20491;-75
2022/01/26 09:11:43;;;;;;;216.95;55.00;;;;;;;1.58;89.07;103013.69;5026245;28;20376;-76
2022/01/26 09:14:10;;;;;;;217.00;55.40;;;;;;;1.59;89.31;103017.94;5027386;28;20044;-75
2022/01/26 09:16:36;;;;;;;206.45;54.10;;;;;;;1.71;89.38;103012.47;5023903;28;20063;-75
2022/01/26 09:19:10;;;;;;;221.52;56.30;;;;;;;1.71;88.80;103013.31;5003087;28;20044;-75
2022/01/26 09:21:36;;;;;;;202.52;52.00;;;;;;;1.65;88.93;103020.31;5018956;28;20527;-74
2022/01/26 09:24:02;;;;;;;216.70;54.95;;;;;;;1.75;88.92;103017.47;5024362;28;20037;-76
2022/01/26 09:26:27;;;;;;;202.15;52.80;;;;;;;1.83;88.52;103029.16;5026835;28;20037;-75
2022/01/26 09:28:53;;;;;;;206.20;54.63;;;;;;;1.75;88.64;103031.94;5026676;28;20030;-75
2022/01/26 09:31:18;;;;;;;219.70;54.55;;;;;;;1.63;89.43;103040.00;5006013;28;20034;-75
2022/01/26 09:33:44;;;;;;;205.02;52.25;;;;;;;1.66;89.35;103037.34;5025452;28;20044;-75
2022/01/26 09:36:09;;;;;;;208.77;55.17;;;;;;;1.66;89.13;103042.47;5023084;28;20037;-75
2022/01/26 09:38:35;;;;;;;210.90;54.13;;;;;;;1.72;88.72;103032.06;5043314;28;20041;-74
2022/01/26 09:41:00;;;;;;;213.52;55.83;;;;;;;1.69;88.50;103048.31;5025894;28;20033;-75
2022/01/26 09:43:28;;;;;;;209.50;53.60;;;;;;;1.65;88.75;103039.06;5024497;28;20044;-76
2022/01/26 09:45:53;;;;;;;206.23;53.53;;;;;;;1.73;89.08;103031.16;5004425;28;20377;-75
2022/01/26 09:48:19;;;;;;;211.15;53.90;;;;;;;1.70;88.93;103038.94;5024083;28;20041;-75
2022/01/26 09:50:46;;;;;;;200.57;52.05;;;;;;;1.77;88.63;103037.84;5002988;28;20116;-77
2022/01/26 09:53:22;;;;;;;214.23;52.28;;;;;;;1.80;88.44;103035.22;5035806;28;20040;-76
2022/01/26 09:55:47;;;;;;;223.10;55.28;;;;;;;1.68;88.93;103033.88;5023611;28;20107;-75
2022/01/26 09:58:15;;;;;;;217.65;53.08;;;;;;;1.74;89.29;103037.97;5018838;28;20030;-76
2022/01/26 10:00:40;;;;;;;217.38;55.88;;;;;;;1.81;89.10;103039.47;5024299;28;20045;-76
2022/01/26 10:03:06;;;;;;;209.27;53.08;;;;;;;1.75;89.49;103042.19;5014991;28;20037;-75
2022/01/26 10:05:42;;;;;;;215.15;57.50;;;;;;;1.68;90.01;103041.53;5023614;28;20033;-77
2022/01/26 10:19:05;;;;;;;226.88;51.92;;;;;;;1.77;90.40;103016.56;5023992;28;20042;-75
2022/01/26 10:21:30;;;;;;;219.15;55.40;;;;;;;1.71;90.94;103017.56;5023152;28;20069;-75
2022/01/26 10:24:08;;;;;;;216.02;53.78;;;;;;;1.70;91.19;103014.19;5016962;28;20064;-75
2022/01/26 10:26:33;;;;;;;229.02;58.13;;;;;;;1.70;90.93;103006.50;5000582;28;20555;-75
2022/01/26 10:29:02;;;;;;;223.38;54.97;;;;;;;1.79;91.17;103014.78;5009474;28;20028;-75
2022/01/26 10:31:33;;;;;;;208.40;53.83;;;;;;;1.81;90.70;103006.22;5006343;28;20032;-75
2022/01/26 10:34:10;;;;;;;201.52;51.78;;;;;;;1.81;90.85;103007.91;5023806;28;20061;-78
2022/01/26 10:36:41;;;;;;;202.85;54.17;;;;;;;1.81;90.55;103007.91;5018526;28;20414;-75
2022/01/26 10:39:08;;;;;;;200.18;50.50;;;;;;;1.87;90.72;103010.31;5025250;28;20056;-75
2022/01/26 10:41:38;;;;;;;209.13;52.83;;;;;;;1.87;90.50;103023.94;5020023;28;20041;-75
2022/01/26 10:44:05;;;;;;;192.10;49.83;;;;;;;1.80;90.60;103011.38;5026132;28;20120;-75
2022/01/26 10:46:39;;;;;;;197.77;49.20;;;;;;;1.92;90.29;103005.88;5022112;28;20506;-75
2022/01/26 10:54:12;;;;;;;193.00;47.53;;;;;;;1.91;90.83;102997.38;5025466;28;20132;-75
2022/01/26 10:56:39;;;;;;;183.45;46.13;;;;;;;1.86;90.61;103000.94;5025449;28;20549;-75
2022/01/26 10:59:05;;;;;;;185.32;47.50;;;;;;;1.86;90.99;103017.13;5009460;28;20053;-75
2022/01/26 11:01:30;;;;;;;192.73;46.25;;;;;;;1.90;90.93;103026.41;5007275;28;20052;-75
2022/01/26 11:03:56;;;;;;;181.75;47.90;;;;;;;1.88;91.13;103032.44;5001637;28;20029;-75
2022/01/26 11:06:22;;;;;;;177.63;45.35;;;;;;;1.91;90.73;103028.06;5013520;28;20037;-75
2022/01/26 11:08:48;;;;;;;180.63;45.38;;;;;;;1.93;91.10;103025.47;5024008;28;20044;-75
2022/01/26 11:11:22;;;;;;;174.63;46.30;;;;;;;1.98;90.94;103015.94;5042778;28;20064;-75
2022/01/26 11:13:48;;;;;;;176.43;45.17;;;;;;;1.97;90.94;103018.53;5023644;28;20416;-75
2022/01/26 11:16:15;;;;;;;186.55;46.67;;;;;;;1.93;91.24;103020.34;5029982;28;20033;-76
2022/01/26 11:18:49;;;;;;;179.32;45.42;;;;;;;2.03;91.24;103014.06;5009340;28;20080;-75
2022/01/26 11:21:28;;;;;;;174.45;44.80;;;;;;;2.01;90.75;103023.50;5003253;28;20033;-75
2022/01/26 11:24:05;;;;;;;164.52;46.53;;;;;;;2.05;90.43;103026.81;5022810;28;20427;-75
2022/01/26 11:26:31;;;;;;;170.40;45.47;;;;;;;1.94;90.83;103028.00;5010338;28;20091;-75
2022/01/26 11:28:57;;;;;;;182.70;47.25;;;;;;;1.91;91.79;103027.25;5005434;28;20036;-75
2022/01/26 11:31:24;;;;;;;163.57;44.80;;;;;;;1.93;91.86;103017.78;5008578;28;20048;-75
2022/01/26 11:33:50;;;;;;;186.15;46.45;;;;;;;2.10;91.07;103015.56;5010206;28;20087;-75
2022/01/26 11:36:17;;;;;;;163.50;44.55;;;;;;;2.08;91.36;103022.44;5027632;28;20026;-75
2022/01/26 11:42:09;;;;;;;176.20;45.63;;;;;;;2.08;91.04;103019.06;5025661;28;20037;-76
2022/01/26 11:47:17;;;;;;;160.00;42.88;;;;;;;1.99;91.35;103020.16;5024750;28;20037;-75
2022/01/26 11:49:44;;;;;;;159.18;40.97;;;;;;;2.01;91.35;103027.81;5023102;28;20041;-75
2022/01/26 11:52:21;;;;;;;154.93;40.58;;;;;;;2.00;91.87;103026.13;5027944;28;20440;-75
2022/01/26 11:54:52;;;;;;;164.80;42.88;;;;;;;2.03;91.39;103026.03;5003333;28;20091;-75
2022/01/26 11:57:19;;;;;;;164.15;43.83;;;;;;;2.01;91.41;103023.50;5030460;28;20041;-77
2022/01/26 11:59:59;;;;;;;160.60;44.33;;;;;;;2.08;91.45;103012.22;5029816;28;20160;-76
2022/01/26 12:02:48;;;;;;;161.85;42.20;;;;;;;2.06;91.53;103006.31;5016353;28;20033;-75
2022/01/26 12:05:21;;;;;;;149.25;38.33;;;;;;;2.03;91.42;103000.44;5020653;28;20447;-76
2022/01/26 12:07:47;;;;;;;176.55;42.47;;;;;;;1.97;92.04;103001.47;5028007;28;20125;-75
2022/01/26 12:10:27;;;;;;;158.95;41.17;;;;;;;2.06;91.53;103002.91;5030283;28;20033;-75
2022/01/26 12:13:07;;;;;;;161.57;42.90;;;;;;;2.08;91.61;103011.38;5041687;28;20044;-75
2022/01/26 12:15:46;;;;;;;164.18;42.10;;;;;;;2.10;91.40;103010.44;5009569;28;20120;-75
2022/01/26 12:18:32;;;;;;;139.88;38.95;;;;;;;2.08;91.48;103004.53;5028399;28;20033;-75
2022/01/26 12:34:41;;;;;;;155.82;41.28;;;;;;;2.06;91.38;102970.47;5020590;28;20026;-75
2022/01/26 12:43:05;;;;;;;130.73;37.83;;;;;;;2.25;90.98;102969.91;5025833;28;20069;-75
2022/01/26 12:45:27;;;;;;;147.75;40.67;;;;;;;2.23;91.42;102958.88;5016199;28;20053;-75
2022/01/26 12:47:55;;;;;;;136.32;37.92;;;;;;;2.26;91.20;102967.28;5025146;28;20415;-77
2022/01/26 12:50:22;;;;;;;152.52;40.20;;;;;;;2.24;91.24;102965.66;5022009;28;20029;-75
2022/01/26 12:52:51;;;;;;;155.07;39.78;;;;;;;2.23;91.02;102967.38;5016460;28;20026;-75
2022/01/26 12:55:28;;;;;;;138.35;39.42;;;;;;;2.22;91.60;102964.88;5039335;28;20033;-75
2022/01/26 12:57:56;;;;;;;139.55;38.15;;;;;;;2.26;91.07;102976.69;5006703;28;20037;-76
2022/01/26 13:00:24;;;;;;;137.13;40.08;;;;;;;2.33;90.66;102979.00;5026326;28;20049;-75
2022/01/26 13:02:51;;;;;;;136.88;39.33;;;;;;;2.30;91.07;102980.84;5024687;28;20044;-75
2022/01/26 13:05:23;;;;;;;154.20;40.38;;;;;;;2.20;91.39;102984.56;5005463;28;20029;-75
2022/01/26 13:08:05;;;;;;;137.10;39.80;;;;;;;2.11;91.75;102990.78;5024272;28;20094;-76
2022/01/26 13:10:31;;;;;;;136.00;37.92;;;;;;;2.19;91.58;102972.66;5004701;28;20029;-75
2022/01/26 13:13:11;;;;;;;148.35;38.95;;;;;;;2.32;91.31;102972.22;5037254;28;20091;-75
2022/01/26 13:15:50;;;;;;;134.68;39.30;;;;;;;2.28;91.58;102968.09;5022410;28;20491;-74
2022/01/26 13:21:33;;;;;;;132.73;37.92;;;;;;;2.34;91.69;102956.81;5023744;28;20075;-75
2022/01/26 13:26:52;;;;;;;133.80;38.03;;;;;;;2.34;91.33;102951.69;5022953;28;20029;-76